Time;durP1;ratioP1;P1;durP2;ratioP2;P2;SDS_P1;SDS_P2;PMS_P1;PMS_P2;Temp;Humidity;BMP_temperature;BMP_pressure;BME280_temperature;BME280_humidity;BME280_pressure;Samples;Min_cycle;Max_cycle;Signal;HPM_P1;HPM_P2
2022/06/25 00:01:19;;;;;;;6.63;5.20;;;;;;;;;;5016268;28;20028;-92
2022/06/25 00:03:46;;;;;;;8.20;5.88;;;;;;;;;;5033976;28;20167;-91
2022/06/25 00:06:12;;;;;;;7.45;6.07;;;;;;;;;;5033879;28;20025;-92
2022/06/25 00:08:39;;;;;;;11.68;6.25;;;;;;;;;;5033921;28;20049;-91
2022/06/25 00:11:06;;;;;;;7.53;4.80;;;;;;;;;;5016193;28;20053;-91
2022/06/25 00:13:35;;;;;;;8.88;5.03;;;;;;;;;;5043793;28;20033;-92
2022/06/25 00:16:01;;;;;;;6.18;5.00;;;;;;;;;;5050243;28;20108;-89
2022/06/25 00:18:27;;;;;;;6.93;5.28;;;;;;;;;;5057444;28;20084;-93
2022/06/25 00:20:53;;;;;;;10.60;4.90;;;;;;;;;;5049799;28;20026;-90
2022/06/25 00:23:19;;;;;;;5.80;4.88;;;;;;;;;;5034220;28;20164;-91
2022/06/25 00:25:45;;;;;;;9.15;4.60;;;;;;;;;;5016345;28;20029;-90
2022/06/25 00:28:14;;;;;;;6.57;4.32;;;;;;;;;;5033798;28;20100;-91
2022/06/25 00:30:40;;;;;;;8.10;4.82;;;;;;;;;;5014720;28;20022;-90
2022/06/25 00:33:06;;;;;;;5.95;4.57;;;;;;;;;;5016104;28;20026;-91
2022/06/25 00:35:32;;;;;;;6.97;4.82;;;;;;;;;;5033586;28;20497;-91
2022/06/25 00:37:58;;;;;;;6.72;4.82;;;;;;;;;;5015841;28;20028;-91
2022/06/25 00:40:24;;;;;;;8.48;4.53;;;;;;;;;;5033075;28;20064;-90
2022/06/25 00:42:53;;;;;;;6.95;4.28;;;;;;;;;;5033320;28;20034;-89
2022/06/25 00:45:19;;;;;;;13.75;9.27;;;;;;;;;;5033425;28;20032;-89
2022/06/25 00:47:46;;;;;;;51.03;29.75;;;;;;;;;;5015596;28;20065;-91
2022/06/25 00:50:12;;;;;;;60.53;36.28;;;;;;;;;;5014906;28;20036;-92
2022/06/25 00:52:41;;;;;;;61.20;34.60;;;;;;;;;;5032565;28;20025;-91
2022/06/25 00:55:12;;;;;;;48.08;26.00;;;;;;;;;;5015170;28;20032;-91
2022/06/25 00:57:44;;;;;;;37.40;16.30;;;;;;;;;;5032968;28;20017;-89
2022/06/25 01:00:20;;;;;;;28.00;16.33;;;;;;;;;;5014942;28;20434;-91
2022/06/25 01:02:47;;;;;;;9.65;7.40;;;;;;;;;;5033046;28;20100;-90
2022/06/25 01:05:14;;;;;;;31.42;17.15;;;;;;;;;;5014803;28;20030;-91
2022/06/25 01:07:41;;;;;;;27.50;14.18;;;;;;;;;;5032347;28;20120;-90
2022/06/25 01:10:07;;;;;;;16.40;9.50;;;;;;;;;;5016075;28;20021;-91
2022/06/25 01:12:34;;;;;;;12.85;8.75;;;;;;;;;;5018891;28;20394;-91
2022/06/25 01:15:01;;;;;;;15.60;9.15;;;;;;;;;;5035200;28;20030;-91
2022/06/25 01:17:27;;;;;;;21.13;10.95;;;;;;;;;;5017167;28;20022;-91
2022/06/25 01:19:54;;;;;;;16.05;8.85;;;;;;;;;;5013810;28;20039;-90
2022/06/25 01:22:20;;;;;;;13.05;7.22;;;;;;;;;;5012065;28;20116;-91
2022/06/25 01:24:47;;;;;;;13.82;8.93;;;;;;;;;;5012420;28;20034;-89
2022/06/25 01:27:16;;;;;;;11.75;6.50;;;;;;;;;;5013560;28;20057;-87
2022/06/25 01:29:42;;;;;;;13.57;7.13;;;;;;;;;;5016504;28;20104;-89
2022/06/25 01:32:10;;;;;;;9.48;5.93;;;;;;;;;;5014620;28;20037;-89
2022/06/25 01:34:36;;;;;;;15.65;8.20;;;;;;;;;;5032897;28;20030;-90
2022/06/25 01:37:02;;;;;;;12.27;6.85;;;;;;;;;;5032334;28;20022;-91
2022/06/25 01:39:28;;;;;;;15.55;8.43;;;;;;;;;;5014532;28;20116;-90
2022/06/25 01:41:54;;;;;;;11.73;6.82;;;;;;;;;;5014431;28;20512;-91
2022/06/25 01:44:20;;;;;;;10.40;6.68;;;;;;;;;;5015411;28;20115;-90
2022/06/25 01:46:46;;;;;;;12.38;6.13;;;;;;;;;;5032601;28;20045;-91
2022/06/25 01:49:12;;;;;;;8.90;4.88;;;;;;;;;;5015070;28;20072;-89
2022/06/25 01:51:38;;;;;;;8.15;5.13;;;;;;;;;;5015116;28;20529;-90
2022/06/25 01:54:04;;;;;;;10.30;4.50;;;;;;;;;;5032905;28;20031;-91
2022/06/25 01:56:30;;;;;;;10.05;5.22;;;;;;;;;;5032750;28;20024;-89
2022/06/25 01:58:56;;;;;;;8.02;5.45;;;;;;;;;;5032686;28;20171;-91
2022/06/25 02:01:22;;;;;;;8.60;5.45;;;;;;;;;;5014977;28;20420;-91
2022/06/25 02:03:48;;;;;;;7.13;4.72;;;;;;;;;;5014556;28;20125;-91
2022/06/25 02:06:14;;;;;;;6.50;4.38;;;;;;;;;;5033603;28;20014;-91
2022/06/25 02:08:40;;;;;;;16.27;4.78;;;;;;;;;;5034818;28;20040;-91
2022/06/25 02:11:08;;;;;;;10.50;5.72;;;;;;;;;;5017505;28;20090;-91
2022/06/25 02:13:34;;;;;;;8.43;4.47;;;;;;;;;;5033640;28;20022;-91
2022/06/25 02:16:00;;;;;;;6.22;4.35;;;;;;;;;;5014682;28;20025;-91
2022/06/25 02:18:27;;;;;;;5.00;4.07;;;;;;;;;;5032121;28;20029;-91
2022/06/25 02:20:53;;;;;;;4.85;4.07;;;;;;;;;;5010997;28;20026;-92
2022/06/25 02:23:20;;;;;;;5.90;4.47;;;;;;;;;;5011101;28;20068;-91
2022/06/25 02:25:46;;;;;;;7.05;4.97;;;;;;;;;;5014269;28;20033;-91
2022/06/25 02:28:12;;;;;;;5.22;4.45;;;;;;;;;;5014583;28;20029;-91
2022/06/25 02:30:38;;;;;;;8.65;4.70;;;;;;;;;;5032044;28;20112;-89
2022/06/25 02:33:04;;;;;;;10.63;4.70;;;;;;;;;;5031532;28;20026;-91
2022/06/25 02:35:30;;;;;;;11.50;4.95;;;;;;;;;;5032211;28;20026;-91
2022/06/25 02:37:57;;;;;;;8.43;5.55;;;;;;;;;;5047212;28;20017;-89
2022/06/25 02:40:23;;;;;;;5.00;4.40;;;;;;;;;;5032031;28;20625;-89
2022/06/25 02:42:49;;;;;;;6.95;5.30;;;;;;;;;;5032234;28;20021;-90
2022/06/25 02:45:15;;;;;;;7.38;5.18;;;;;;;;;;5032055;28;20033;-90
2022/06/25 02:47:41;;;;;;;7.65;4.95;;;;;;;;;;5015133;28;20444;-90
2022/06/25 02:50:07;;;;;;;11.57;5.35;;;;;;;;;;5014128;28;20523;-91
2022/06/25 02:52:34;;;;;;;9.48;5.00;;;;;;;;;;5031496;28;20101;-91
2022/06/25 02:55:00;;;;;;;8.70;5.32;;;;;;;;;;5017588;28;20106;-90
2022/06/25 03:00:13;;;;;;;10.07;5.90;;;;;;;;;;5035983;28;20087;-91
2022/06/25 03:02:39;;;;;;;6.70;5.63;;;;;;;;;;5017693;28;20121;-89
2022/06/25 03:05:05;;;;;;;7.07;5.55;;;;;;;;;;5035530;28;20033;-91
2022/06/25 03:07:31;;;;;;;7.13;5.07;;;;;;;;;;5017020;28;20047;-90
2022/06/25 03:09:57;;;;;;;5.22;4.72;;;;;;;;;;5017287;28;20029;-90
2022/06/25 03:12:23;;;;;;;10.57;5.13;;;;;;;;;;5017605;28;20025;-90
2022/06/25 03:14:49;;;;;;;7.80;4.70;;;;;;;;;;5017125;28;20029;-89
2022/06/25 03:17:15;;;;;;;14.65;5.60;;;;;;;;;;5017172;28;20033;-91
2022/06/25 03:19:41;;;;;;;6.38;5.25;;;;;;;;;;5027224;28;20090;-91
2022/06/25 03:22:08;;;;;;;10.02;5.95;;;;;;;;;;5017194;28;20037;-91
2022/06/25 03:24:34;;;;;;;10.68;6.03;;;;;;;;;;5017287;28;20373;-90
2022/06/25 03:27:00;;;;;;;10.60;6.72;;;;;;;;;;5035222;28;20362;-91
2022/06/25 03:29:26;;;;;;;11.10;6.57;;;;;;;;;;5017089;28;20188;-90
2022/06/25 03:31:52;;;;;;;12.23;6.78;;;;;;;;;;5017291;28;20029;-90
2022/06/25 03:34:18;;;;;;;10.43;7.00;;;;;;;;;;5030430;28;20048;-91
2022/06/25 03:36:44;;;;;;;12.15;8.55;;;;;;;;;;5057965;28;20037;-92
2022/06/25 03:39:10;;;;;;;12.32;8.20;;;;;;;;;;5042667;28;20033;-91
2022/06/25 03:41:36;;;;;;;17.00;8.95;;;;;;;;;;5034920;28;20041;-91
2022/06/25 03:44:06;;;;;;;18.08;8.70;;;;;;;;;;5034732;28;20079;-91
2022/06/25 03:46:33;;;;;;;18.85;8.43;;;;;;;;;;5034792;28;20030;-90
2022/06/25 03:49:00;;;;;;;11.02;7.13;;;;;;;;;;5034689;28;20045;-91
2022/06/25 03:51:27;;;;;;;11.52;6.82;;;;;;;;;;5017187;28;20083;-88
2022/06/25 03:53:53;;;;;;;6.93;5.32;;;;;;;;;;5016508;28;20044;-89
2022/06/25 03:56:19;;;;;;;11.98;5.82;;;;;;;;;;5036477;28;20022;-87
2022/06/25 03:58:45;;;;;;;7.32;5.63;;;;;;;;;;5016471;28;20124;-90
2022/06/25 04:01:11;;;;;;;8.40;5.30;;;;;;;;;;5016451;28;20029;-90
2022/06/25 04:03:37;;;;;;;6.72;5.05;;;;;;;;;;5016762;28;20025;-91
2022/06/25 04:06:03;;;;;;;8.43;5.78;;;;;;;;;;5016589;28;20033;-90
2022/06/25 04:08:29;;;;;;;10.02;6.07;;;;;;;;;;5034494;28;20068;-90
2022/06/25 04:10:55;;;;;;;7.47;5.47;;;;;;;;;;5016480;28;20078;-91
2022/06/25 04:13:21;;;;;;;11.73;5.20;;;;;;;;;;5034020;28;20048;-91
2022/06/25 04:15:47;;;;;;;10.23;6.45;;;;;;;;;;5034292;28;20031;-91
2022/06/25 04:18:13;;;;;;;16.10;6.53;;;;;;;;;;5034193;28;20021;-90
2022/06/25 04:20:39;;;;;;;12.25;7.30;;;;;;;;;;5018372;28;20053;-89
2022/06/25 04:23:06;;;;;;;12.60;6.57;;;;;;;;;;5033469;28;20056;-91
2022/06/25 04:25:32;;;;;;;13.27;6.75;;;;;;;;;;5015976;28;20021;-89
2022/06/25 04:30:42;;;;;;;8.77;5.47;;;;;;;;;;5033824;28;20125;-90
2022/06/25 04:33:08;;;;;;;7.28;5.65;;;;;;;;;;5033629;28;20462;-91
2022/06/25 04:35:34;;;;;;;10.65;5.63;;;;;;;;;;5033821;28;20041;-90
2022/06/25 04:38:00;;;;;;;6.85;5.35;;;;;;;;;;5015939;28;20032;-90
2022/06/25 04:40:29;;;;;;;7.47;5.65;;;;;;;;;;5015742;28;20116;-91
2022/06/25 04:42:55;;;;;;;11.48;6.97;;;;;;;;;;5015638;28;20409;-90
2022/06/25 04:45:23;;;;;;;12.82;7.88;;;;;;;;;;5033701;28;20397;-91
2022/06/25 04:47:49;;;;;;;12.68;8.45;;;;;;;;;;5033492;28;20025;-91
2022/06/25 04:50:15;;;;;;;11.23;7.20;;;;;;;;;;5015072;28;20040;-91
2022/06/25 04:52:41;;;;;;;12.85;7.18;;;;;;;;;;5033607;28;20025;-91
2022/06/25 04:55:08;;;;;;;11.30;7.13;;;;;;;;;;5033130;28;20029;-92
2022/06/25 04:57:34;;;;;;;11.18;7.40;;;;;;;;;;5015309;28;20028;-90
2022/06/25 05:00:00;;;;;;;9.00;6.70;;;;;;;;;;5015472;28;20025;-90
2022/06/25 05:02:26;;;;;;;11.15;6.55;;;;;;;;;;5033858;28;20681;-89
2022/06/25 05:04:52;;;;;;;10.10;6.32;;;;;;;;;;5015240;28;20032;-90
2022/06/25 05:07:18;;;;;;;7.55;5.57;;;;;;;;;;5015940;28;20033;-90
2022/06/25 05:09:44;;;;;;;8.18;5.20;;;;;;;;;;5015695;28;20400;-90
2022/06/25 05:13:11;;;;;;;5.20;4.22;;;;;;;;;;5033617;28;20029;-89
2022/06/25 05:14:57;;;;;;;6.38;4.65;;;;;;;;;;5032882;28;20107;-89
2022/06/25 05:17:26;;;;;;;7.55;4.10;;;;;;;;;;5032617;28;20489;-90
2022/06/25 05:19:52;;;;;;;5.88;4.00;;;;;;;;;;5014912;28;20025;-90
2022/06/25 05:22:18;;;;;;;6.80;3.80;;;;;;;;;;5015213;28;20059;-90
2022/06/25 05:24:44;;;;;;;5.50;3.60;;;;;;;;;;5033188;28;20504;-91
2022/06/25 05:27:10;;;;;;;4.07;3.38;;;;;;;;;;5032928;28;20491;-88
2022/06/25 05:29:41;;;;;;;4.03;3.47;;;;;;;;;;5014944;28;20469;-89
2022/06/25 05:32:07;;;;;;;;;;;;;;;;;;5016030;28;20633;-89
2022/06/25 05:34:33;;;;;;;3.13;2.83;;;;;;;;;;5015031;28;19919;-90
2022/06/25 05:36:59;;;;;;;4.05;2.67;;;;;;;;;;5014897;28;20029;-90
2022/06/25 05:39:25;;;;;;;7.25;3.60;;;;;;;;;;5033356;28;20029;-91
2022/06/25 05:41:51;;;;;;;6.85;3.20;;;;;;;;;;5016137;28;20669;-90
2022/06/25 05:44:17;;;;;;;2.95;2.70;;;;;;;;;;5015720;28;20128;-90
2022/06/25 05:46:46;;;;;;;4.18;3.20;;;;;;;;;;5012034;28;20088;-88
2022/06/25 05:49:12;;;;;;;3.88;3.22;;;;;;;;;;5012958;28;20524;-91
2022/06/25 05:51:38;;;;;;;5.57;3.22;;;;;;;;;;5012979;28;20474;-89
2022/06/25 05:54:07;;;;;;;6.60;3.40;;;;;;;;;;5014878;28;20030;-91
2022/06/25 05:56:33;;;;;;;7.90;3.10;;;;;;;;;;5032703;28;20029;-92
2022/06/25 05:59:00;;;;;;;5.32;3.53;;;;;;;;;;5032550;28;20037;-91
2022/06/25 06:01:26;;;;;;;5.93;3.10;;;;;;;;;;5014559;28;20516;-91
2022/06/25 06:03:52;;;;;;;5.68;3.60;;;;;;;;;;5015185;28;20029;-91
2022/06/25 06:06:18;;;;;;;3.85;2.85;;;;;;;;;;5014977;28;20045;-91
2022/06/25 06:08:44;;;;;;;8.20;3.70;;;;;;;;;;5014561;28;20052;-91
2022/06/25 06:11:10;;;;;;;8.30;3.35;;;;;;;;;;5027317;28;20029;-91
2022/06/25 06:13:37;;;;;;;2.90;2.50;;;;;;;;;;5036272;28;20106;-91
2022/06/25 06:16:03;;;;;;;4.05;2.47;;;;;;;;;;5033165;28;20032;-91
2022/06/25 06:18:29;;;;;;;6.35;2.85;;;;;;;;;;5032684;28;20052;-91
2022/06/25 06:20:55;;;;;;;2.97;2.70;;;;;;;;;;5015139;28;20546;-91
2022/06/25 06:23:21;;;;;;;7.15;2.92;;;;;;;;;;5012763;28;20025;-90
2022/06/25 06:25:47;;;;;;;6.07;2.80;;;;;;;;;;4998630;28;20075;-91
2022/06/25 06:28:13;;;;;;;4.72;2.40;;;;;;;;;;5026166;28;20025;-88
2022/06/25 06:30:39;;;;;;;4.57;3.05;;;;;;;;;;5035542;28;20021;-90
2022/06/25 06:33:05;;;;;;;7.28;2.90;;;;;;;;;;5036281;28;20029;-90
2022/06/25 06:35:31;;;;;;;6.32;2.83;;;;;;;;;;5037721;28;20680;-91
2022/06/25 06:37:57;;;;;;;4.40;2.85;;;;;;;;;;5019165;28;20140;-90
2022/06/25 06:40:23;;;;;;;3.80;2.58;;;;;;;;;;5019071;28;20461;-91
2022/06/25 06:42:49;;;;;;;3.60;2.40;;;;;;;;;;5036653;28;20397;-92
2022/06/25 06:45:15;;;;;;;7.47;2.67;;;;;;;;;;5035958;28;20501;-90
2022/06/25 06:47:41;;;;;;;4.30;2.60;;;;;;;;;;5017735;28;20033;-90
2022/06/25 06:50:10;;;;;;;3.45;2.47;;;;;;;;;;5017417;28;20041;-90
2022/06/25 06:52:36;;;;;;;5.60;2.50;;;;;;;;;;5035933;28;20026;-90
2022/06/25 06:55:04;;;;;;;6.05;2.20;;;;;;;;;;5017947;28;20108;-90
2022/06/25 06:57:31;;;;;;;3.15;2.40;;;;;;;;;;5032109;28;20030;-88
2022/06/25 07:00:00;;;;;;;3.72;2.30;;;;;;;;;;5030500;28;20026;-90
2022/06/25 07:02:26;;;;;;;2.30;2.08;;;;;;;;;;5035972;28;20528;-90
2022/06/25 07:04:52;;;;;;;2.95;2.65;;;;;;;;;;5017869;28;20575;-88
2022/06/25 07:07:19;;;;;;;6.55;3.05;;;;;;;;;;5045154;28;20030;-93
2022/06/25 07:09:45;;;;;;;3.00;2.22;;;;;;;;;;5038445;28;20045;-91
2022/06/25 07:12:14;;;;;;;2.35;2.10;;;;;;;;;;5051913;28;20034;-90
2022/06/25 07:14:40;;;;;;;4.50;2.20;;;;;;;;;;5029980;28;20041;-90
2022/06/25 07:20:23;;;;;;;4.05;1.88;;;;;;;;;;5020778;28;20068;-91
2022/06/25 07:22:51;;;;;;;2.90;1.83;;;;;;;;;;5037682;28;20031;-91
2022/06/25 07:25:17;;;;;;;3.13;1.90;;;;;;;;;;5010578;28;20388;-91
2022/06/25 07:27:44;;;;;;;2.85;2.63;;;;;;;;;;5034987;28;20087;-91
2022/06/25 07:30:11;;;;;;;3.25;1.80;;;;;;;;;;5001892;28;20562;-90
2022/06/25 07:32:37;;;;;;;4.05;1.90;;;;;;;;;;5017538;28;20100;-90
2022/06/25 07:35:03;;;;;;;5.20;2.30;;;;;;;;;;5017198;28;20033;-90
2022/06/25 07:37:29;;;;;;;3.75;1.90;;;;;;;;;;5034088;28;20029;-88
2022/06/25 07:39:55;;;;;;;2.30;2.08;;;;;;;;;;5016420;28;20029;-90
2022/06/25 07:42:21;;;;;;;4.35;2.30;;;;;;;;;;5017312;28;20036;-91
2022/06/25 07:44:58;;;;;;;3.00;1.92;;;;;;;;;;5034219;28;20488;-91
2022/06/25 07:47:24;;;;;;;6.32;2.70;;;;;;;;;;5034663;28;20049;-91
2022/06/25 07:52:34;;;;;;;3.95;1.80;;;;;;;;;;5035137;28;20032;-90
2022/06/25 07:55:03;;;;;;;3.03;1.92;;;;;;;;;;5034387;28;20032;-91
2022/06/25 07:57:29;;;;;;;5.82;2.33;;;;;;;;;;5016547;28;20017;-90
2022/06/25 07:59:55;;;;;;;3.03;1.73;;;;;;;;;;5016751;28;20033;-91
2022/06/25 08:02:21;;;;;;;6.63;1.85;;;;;;;;;;5032879;28;20029;-93
2022/06/25 08:05:41;;;;;;;8.38;3.85;;;;;;;;;;5043963;28;20042;-94
2022/06/25 08:08:07;;;;;;;2.63;1.70;;;;;;;;;;4948017;29;20097;-92
2022/06/25 08:10:36;;;;;;;3.47;1.80;;;;;;;;;;5043412;28;20040;-93
2022/06/25 08:13:03;;;;;;;5.35;1.83;;;;;;;;;;5051475;28;20018;-95
2022/06/25 08:15:29;;;;;;;4.18;1.98;;;;;;;;;;5077135;28;20024;-92
2022/06/25 08:17:55;;;;;;;2.08;1.80;;;;;;;;;;5077871;28;20013;-94
2022/06/25 08:20:21;;;;;;;3.08;1.38;;;;;;;;;;5053334;28;20036;-92
2022/06/25 08:22:49;;;;;;;1.65;1.55;;;;;;;;;;5075627;28;20033;-93
2022/06/25 08:25:16;;;;;;;3.63;1.50;;;;;;;;;;5045709;28;20063;-92
2022/06/25 08:27:53;;;;;;;7.40;2.58;;;;;;;;;;5039163;28;20025;-92
2022/06/25 08:30:20;;;;;;;3.63;1.80;;;;;;;;;;5059148;28;20041;-93
2022/06/25 08:32:46;;;;;;;3.40;1.40;;;;;;;;;;5059552;28;20045;-92
2022/06/25 08:35:13;;;;;;;3.22;1.75;;;;;;;;;;5030780;28;20033;-93
2022/06/25 08:37:39;;;;;;;3.72;1.50;;;;;;;;;;5040073;28;20029;-90
2022/06/25 08:40:09;;;;;;;4.55;1.90;;;;;;;;;;5015299;28;20033;-89
2022/06/25 08:42:35;;;;;;;2.58;1.85;;;;;;;;;;5033629;28;20053;-90
2022/06/25 08:45:01;;;;;;;1.63;1.48;;;;;;;;;;5015755;28;20056;-89
2022/06/25 08:47:27;;;;;;;1.88;1.50;;;;;;;;;;5033594;28;20026;-90
2022/06/25 08:49:53;;;;;;;3.90;1.38;;;;;;;;;;5015483;28;20032;-91
2022/06/25 08:52:20;;;;;;;2.33;1.55;;;;;;;;;;5014654;28;20025;-90
2022/06/25 08:54:46;;;;;;;2.28;1.40;;;;;;;;;;5032950;28;20033;-91
2022/06/25 08:57:21;;;;;;;5.65;1.33;;;;;;;;;;5015556;28;20124;-88
2022/06/25 08:59:47;;;;;;;3.25;1.40;;;;;;;;;;5014827;28;20493;-90
2022/06/25 09:02:13;;;;;;;3.55;1.95;;;;;;;;;;5033938;28;20485;-89
2022/06/25 09:04:39;;;;;;;3.63;1.35;;;;;;;;;;5029699;28;20026;-89
2022/06/25 09:07:23;;;;;;;1.30;1.10;;;;;;;;;;5015164;28;20037;-90
2022/06/25 09:09:50;;;;;;;2.70;1.50;;;;;;;;;;5032135;28;20033;-90
2022/06/25 09:12:19;;;;;;;2.40;1.17;;;;;;;;;;5015133;28;20029;-90
2022/06/25 09:14:45;;;;;;;1.65;1.50;;;;;;;;;;5015333;28;20025;-90
2022/06/25 09:17:13;;;;;;;2.22;1.10;;;;;;;;;;5015718;28;20021;-89
2022/06/25 09:19:48;;;;;;;2.35;1.10;;;;;;;;;;5036825;28;20025;-89
2022/06/25 09:22:22;;;;;;;2.60;1.23;;;;;;;;;;5017031;28;20029;-90
2022/06/25 09:24:49;;;;;;;2.08;1.35;;;;;;;;;;5032813;28;20040;-91
2022/06/25 09:27:18;;;;;;;4.20;1.58;;;;;;;;;;5014832;28;20029;-90
2022/06/25 09:29:45;;;;;;;4.20;1.30;;;;;;;;;;5019497;28;20025;-92
2022/06/25 09:32:15;;;;;;;1.52;1.10;;;;;;;;;;5039888;28;20030;-91
2022/06/25 09:34:44;;;;;;;1.67;1.20;;;;;;;;;;5030260;28;20005;-92
2022/06/25 09:37:19;;;;;;;4.13;1.20;;;;;;;;;;5024090;28;20022;-93
2022/06/25 09:39:47;;;;;;;2.72;1.00;;;;;;;;;;5036188;28;20537;-93
2022/06/25 09:42:30;;;;;;;2.60;1.30;;;;;;;;;;5017663;28;20026;-93
2022/06/25 09:45:06;;;;;;;3.95;1.20;;;;;;;;;;5017270;28;20034;-92
2022/06/25 09:47:43;;;;;;;1.67;1.13;;;;;;;;;;5019128;28;20026;-90
2022/06/25 09:50:09;;;;;;;1.98;1.15;;;;;;;;;;5016091;28;20035;-92
2022/06/25 09:52:36;;;;;;;1.83;1.00;;;;;;;;;;5033021;28;20033;-93
2022/06/25 09:55:03;;;;;;;1.25;1.00;;;;;;;;;;5015579;28;20021;-92
2022/06/25 09:57:31;;;;;;;4.15;1.00;;;;;;;;;;5038950;28;20047;-91
2022/06/25 09:59:59;;;;;;;3.25;1.25;;;;;;;;;;5021777;28;20029;-90
2022/06/25 10:02:30;;;;;;;2.33;1.02;;;;;;;;;;5028467;28;20109;-91
2022/06/25 10:05:01;;;;;;;1.98;0.90;;;;;;;;;;5029284;28;20041;-92
2022/06/25 10:07:59;;;;;;;1.38;1.15;;;;;;;;;;5039556;28;20034;-91
2022/06/25 10:10:18;;;;;;;1.58;1.13;;;;;;;;;;5037909;28;20033;-91
2022/06/25 10:12:46;;;;;;;1.00;0.90;;;;;;;;;;5019529;28;20021;-91
2022/06/25 10:15:15;;;;;;;6.00;1.33;;;;;;;;;;5019551;28;20421;-92
2022/06/25 10:17:41;;;;;;;1.15;1.00;;;;;;;;;;5038171;28;20025;-92
2022/06/25 10:20:08;;;;;;;1.95;0.95;;;;;;;;;;5019318;28;20033;-90
2022/06/25 10:22:37;;;;;;;3.65;0.93;;;;;;;;;;5018234;28;20056;-90
2022/06/25 10:25:04;;;;;;;2.30;0.90;;;;;;;;;;5018093;28;20025;-89
2022/06/25 10:27:37;;;;;;;3.22;1.00;;;;;;;;;;5036165;28;20113;-90
2022/06/25 10:30:03;;;;;;;1.52;0.80;;;;;;;;;;5017775;28;20061;-90
2022/06/25 10:32:34;;;;;;;1.35;0.90;;;;;;;;;;5035855;28;20416;-89
2022/06/25 10:35:04;;;;;;;1.00;0.80;;;;;;;;;;5017350;28;20029;-90
2022/06/25 10:37:49;;;;;;;1.55;1.13;;;;;;;;;;5018005;28;20029;-90
2022/06/25 10:40:18;;;;;;;2.22;0.60;;;;;;;;;;5032271;28;20105;-89
2022/06/25 10:43:01;;;;;;;2.00;1.00;;;;;;;;;;5014912;28;20022;-91
2022/06/25 10:45:34;;;;;;;2.20;0.80;;;;;;;;;;5017581;28;20029;-90
2022/06/25 10:48:01;;;;;;;1.35;0.90;;;;;;;;;;5042007;28;20117;-89
2022/06/25 10:50:29;;;;;;;2.08;0.88;;;;;;;;;;5015730;28;20047;-88
2022/06/25 10:53:07;;;;;;;0.98;0.93;;;;;;;;;;5033551;28;20021;-88
2022/06/25 10:55:39;;;;;;;1.67;0.80;;;;;;;;;;5017585;28;20564;-88
2022/06/25 10:58:21;;;;;;;4.60;0.82;;;;;;;;;;5034711;28;20100;-88
2022/06/25 11:00:58;;;;;;;2.38;0.70;;;;;;;;;;5017533;28;20489;-89
2022/06/25 11:03:27;;;;;;;1.90;1.10;;;;;;;;;;5035720;28;20070;-86
2022/06/25 11:05:54;;;;;;;1.98;0.85;;;;;;;;;;5018921;28;20030;-88
2022/06/25 11:08:23;;;;;;;3.28;1.10;;;;;;;;;;5018047;28;20040;-88
2022/06/25 11:10:49;;;;;;;2.50;1.08;;;;;;;;;;5017398;28;20056;-90
2022/06/25 11:13:15;;;;;;;1.90;0.88;;;;;;;;;;5017284;28;20029;-91
2022/06/25 11:15:42;;;;;;;3.22;1.23;;;;;;;;;;5034693;28;20436;-91
2022/06/25 11:18:09;;;;;;;3.10;1.00;;;;;;;;;;5047967;28;20033;-91
2022/06/25 11:20:36;;;;;;;4.70;0.80;;;;;;;;;;5037122;28;20032;-93
2022/06/25 11:23:05;;;;;;;2.47;1.17;;;;;;;;;;5018891;28;20025;-91
2022/06/25 11:28:52;;;;;;;4.75;1.10;;;;;;;;;;5034879;28;20041;-90
2022/06/25 11:31:20;;;;;;;8.85;1.35;;;;;;;;;;5017963;28;20032;-91
2022/06/25 11:33:47;;;;;;;1.20;1.00;;;;;;;;;;5020126;28;20059;-90
2022/06/25 11:36:16;;;;;;;1.23;0.93;;;;;;;;;;5019286;28;20021;-92
2022/06/25 11:38:43;;;;;;;2.15;1.00;;;;;;;;;;5018574;28;20086;-89
2022/06/25 11:41:19;;;;;;;1.33;1.10;;;;;;;;;;5017319;28;20029;-90
2022/06/25 11:43:45;;;;;;;3.30;1.15;;;;;;;;;;5017575;28;20022;-91
2022/06/25 11:46:14;;;;;;;2.38;0.93;;;;;;;;;;5034634;28;20032;-90
2022/06/25 11:48:40;;;;;;;2.50;1.02;;;;;;;;;;5017322;28;20034;-90
2022/06/25 11:51:07;;;;;;;1.60;1.00;;;;;;;;;;5017706;28;20551;-91
2022/06/25 11:53:37;;;;;;;2.13;1.15;;;;;;;;;;5018232;28;20025;-91
2022/06/25 11:56:05;;;;;;;2.13;1.00;;;;;;;;;;5035703;28;20056;-89
2022/06/25 11:58:33;;;;;;;2.65;0.73;;;;;;;;;;5050270;28;20076;-93
2022/06/25 12:01:00;;;;;;;1.90;0.82;;;;;;;;;;5035280;28;20041;-94
2022/06/25 12:03:27;;;;;;;4.10;0.88;;;;;;;;;;5036729;28;20017;-93
2022/06/25 12:05:57;;;;;;;1.42;0.70;;;;;;;;;;5033620;28;20022;-93
2022/06/25 12:08:24;;;;;;;2.03;0.95;;;;;;;;;;5031312;28;20026;-93
2022/06/25 12:10:51;;;;;;;3.90;1.30;;;;;;;;;;5036591;28;20021;-95
2022/06/25 12:13:17;;;;;;;4.97;0.95;;;;;;;;;;5040143;28;20060;-92
2022/06/25 12:15:43;;;;;;;0.70;0.70;;;;;;;;;;5048688;28;20033;-92
2022/06/25 12:18:09;;;;;;;6.03;1.08;;;;;;;;;;5046487;28;20055;-91
2022/06/25 12:20:52;;;;;;;1.23;0.68;;;;;;;;;;5051033;28;20022;-92
2022/06/25 12:23:18;;;;;;;2.00;0.70;;;;;;;;;;5041992;28;20161;-92
2022/06/25 12:25:44;;;;;;;2.85;1.00;;;;;;;;;;5043700;28;20041;-91
2022/06/25 12:28:10;;;;;;;0.90;0.50;;;;;;;;;;5044024;28;20034;-91
2022/06/25 12:30:36;;;;;;;1.27;0.73;;;;;;;;;;5027418;28;20029;-91
2022/06/25 12:33:07;;;;;;;0.80;0.80;;;;;;;;;;5046796;28;20018;-94
2022/06/25 12:35:36;;;;;;;0.82;0.70;;;;;;;;;;5036762;28;20044;-90
2022/06/25 12:38:03;;;;;;;1.95;0.63;;;;;;;;;;5018812;28;20025;-89
2022/06/25 12:40:30;;;;;;;1.00;0.80;;;;;;;;;;5036255;28;20025;-91
2022/06/25 12:42:57;;;;;;;0.82;0.55;;;;;;;;;;5038268;28;20026;-88
2022/06/25 12:45:23;;;;;;;1.52;0.50;;;;;;;;;;5016209;28;20041;-90
2022/06/25 12:47:49;;;;;;;1.58;0.73;;;;;;;;;;5015994;28;20034;-90
2022/06/25 12:50:26;;;;;;;0.50;0.50;;;;;;;;;;5016233;28;20067;-90
2022/06/25 12:52:52;;;;;;;0.50;0.50;;;;;;;;;;5016169;28;20052;-89
2022/06/25 12:55:19;;;;;;;0.70;0.63;;;;;;;;;;5034385;28;20026;-90
2022/06/25 12:57:46;;;;;;;1.27;0.60;;;;;;;;;;5015575;28;20052;-90
2022/06/25 13:00:32;;;;;;;0.50;0.43;;;;;;;;;;5033008;28;20025;-90
2022/06/25 13:02:58;;;;;;;0.70;0.60;;;;;;;;;;5016478;28;20025;-90
2022/06/25 13:05:24;;;;;;;3.55;0.95;;;;;;;;;;5022469;28;20083;-90
2022/06/25 13:07:50;;;;;;;2.33;0.90;;;;;;;;;;5047927;28;20034;-90
2022/06/25 13:10:17;;;;;;;1.45;0.90;;;;;;;;;;5052181;28;20055;-89
2022/06/25 13:12:50;;;;;;;1.83;0.60;;;;;;;;;;5048719;28;20029;-89
2022/06/25 13:15:16;;;;;;;0.88;0.55;;;;;;;;;;5035297;28;20016;-91
2022/06/25 13:17:42;;;;;;;3.30;0.85;;;;;;;;;;5040119;28;20080;-93
2022/06/25 13:20:09;;;;;;;1.23;0.60;;;;;;;;;;5039408;28;20097;-92
2022/06/25 13:22:35;;;;;;;2.50;0.95;;;;;;;;;;5040033;28;20092;-93
2022/06/25 13:25:02;;;;;;;0.82;0.60;;;;;;;;;;5205155;22;20033;-92
2022/06/25 13:27:30;;;;;;;2.40;0.77;;;;;;;;;;5077661;28;20017;-89
2022/06/25 13:29:57;;;;;;;3.35;1.17;;;;;;;;;;5076437;28;20037;-90
2022/06/25 13:32:23;;;;;;;0.68;0.63;;;;;;;;;;5077241;28;20013;-91
2022/06/25 13:34:49;;;;;;;2.05;1.00;;;;;;;;;;5077569;28;20021;-92
2022/06/25 13:37:18;;;;;;;2.38;0.57;;;;;;;;;;5077646;28;20017;-94
2022/06/25 13:39:44;;;;;;;1.85;1.15;;;;;;;;;;5078379;28;20017;-95
2022/06/25 13:42:10;;;;;;;2.90;0.70;;;;;;;;;;5077812;28;20032;-95
2022/06/25 13:44:36;;;;;;;0.73;0.50;;;;;;;;;;5078144;28;20013;-94
2022/06/25 13:47:03;;;;;;;1.95;0.65;;;;;;;;;;5077569;28;20075;-94
2022/06/25 13:49:29;;;;;;;1.08;0.60;;;;;;;;;;5078210;28;20013;-93
2022/06/25 13:51:55;;;;;;;2.78;0.98;;;;;;;;;;5078454;28;20075;-91
2022/06/25 13:54:22;;;;;;;0.68;0.68;;;;;;;;;;5077501;28;20024;-91
2022/06/25 13:56:50;;;;;;;4.97;1.00;;;;;;;;;;5077940;28;20086;-93
2022/06/25 13:59:16;;;;;;;2.83;0.70;;;;;;;;;;5078661;28;20049;-92
2022/06/25 14:01:42;;;;;;;2.40;0.70;;;;;;;;;;5077710;28;20036;-91
2022/06/25 14:04:09;;;;;;;0.52;0.43;;;;;;;;;;5077863;28;20041;-90
2022/06/25 14:06:39;;;;;;;0.60;0.60;;;;;;;;;;5078241;28;20013;-91
2022/06/25 14:09:05;;;;;;;1.27;1.02;;;;;;;;;;5078144;28;20025;-91
2022/06/25 14:11:31;;;;;;;3.40;0.70;;;;;;;;;;5077880;28;20098;-91
2022/06/25 14:13:57;;;;;;;0.93;0.60;;;;;;;;;;5078207;28;20017;-93
2022/06/25 14:16:26;;;;;;;0.50;0.50;;;;;;;;;;5075836;28;20019;-92
2022/06/25 14:18:52;;;;;;;3.30;0.80;;;;;;;;;;5070392;28;20036;-89
2022/06/25 14:21:18;;;;;;;1.50;0.77;;;;;;;;;;5052683;28;20027;-90
2022/06/25 14:23:46;;;;;;;0.50;0.50;;;;;;;;;;5066415;28;20037;-90
2022/06/25 14:26:13;;;;;;;2.33;1.05;;;;;;;;;;5075848;28;20013;-91
2022/06/25 14:28:40;;;;;;;1.88;0.55;;;;;;;;;;5070514;28;20047;-91
2022/06/25 14:31:09;;;;;;;2.35;0.70;;;;;;;;;;5072661;28;20048;-91
2022/06/25 14:33:35;;;;;;;1.13;0.60;;;;;;;;;;5071121;28;20033;-91
2022/06/25 14:44:16;;;;;;;1.45;0.60;;;;;;;;;;5070552;28;20036;-91
2022/06/25 14:49:38;;;;;;;1.15;0.65;;;;;;;;;;5047491;28;20128;-92
2022/06/25 14:52:04;;;;;;;1.45;0.60;;;;;;;;;;5035151;28;20072;-92
2022/06/25 14:54:30;;;;;;;2.80;0.63;;;;;;;;;;5031465;28;20025;-91
2022/06/25 14:57:00;;;;;;;0.43;0.40;;;;;;;;;;5032554;28;20053;-92
2022/06/25 14:59:27;;;;;;;2.13;0.65;;;;;;;;;;5034807;28;20033;-90
2022/06/25 15:01:53;;;;;;;1.80;0.52;;;;;;;;;;5035059;28;20026;-90
2022/06/25 15:04:19;;;;;;;1.73;0.60;;;;;;;;;;5033695;28;20060;-88
2022/06/25 15:06:45;;;;;;;2.38;0.52;;;;;;;;;;5015257;28;20022;-89
2022/06/25 15:09:11;;;;;;;0.65;0.50;;;;;;;;;;5030504;28;20022;-89